Time;durP1;ratioP1;P1;durP2;ratioP2;P2;SDS_P1;SDS_P2;PMS_P1;PMS_P2;Temp;Humidity;BMP_temperature;BMP_pressure;BME280_temperature;BME280_humidity;BME280_pressure;Samples;Min_cycle;Max_cycle;Signal;HPM_P1;HPM_P2
2022/10/10 00:00:39;;;;;;;7.15;3.15;;;;;;;11.25;73.99;93088.63;2051093;70;20186;-81
2022/10/10 00:03:06;;;;;;;9.32;3.20;;;;;;;11.03;76.39;93085.84;2051042;69;20232;-81
2022/10/10 00:05:31;;;;;;;8.82;3.35;;;;;;;11.14;74.87;93099.25;2051015;70;20228;-80
2022/10/10 00:08:07;;;;;;;7.55;3.00;;;;;;;11.18;74.31;93081.88;2051419;70;20153;-83
2022/10/10 00:10:37;;;;;;;9.63;3.08;;;;;;;11.15;74.87;93081.00;2051660;70;20315;-83
2022/10/10 00:13:04;;;;;;;9.25;2.88;;;;;;;11.07;75.56;93076.91;2051038;70;20155;-81
2022/10/10 00:15:31;;;;;;;8.02;2.85;;;;;;;11.09;74.55;93079.88;2051463;70;20688;-81
2022/10/10 00:18:04;;;;;;;6.10;2.92;;;;;;;10.87;76.52;93077.06;2048379;70;20592;-82
2022/10/10 00:20:31;;;;;;;10.38;2.97;;;;;;;11.07;75.60;93083.28;2051618;70;20157;-81
2022/10/10 00:23:00;;;;;;;10.88;3.70;;;;;;;11.07;74.90;93082.53;2051607;70;20208;-82
2022/10/10 00:25:28;;;;;;;7.47;3.53;;;;;;;11.08;75.05;93073.47;2051758;70;20150;-83
2022/10/10 00:28:02;;;;;;;12.40;2.97;;;;;;;11.02;75.35;93067.47;2051897;70;20585;-82
2022/10/10 00:30:30;;;;;;;9.57;3.00;;;;;;;11.00;75.71;93069.41;2054031;70;20273;-83
2022/10/10 00:33:04;;;;;;;7.43;3.42;;;;;;;10.94;75.65;93070.47;2051751;70;20133;-84
2022/10/10 00:35:32;;;;;;;8.23;2.88;;;;;;;11.05;75.30;93066.25;2052195;69;20230;-84
2022/10/10 00:38:00;;;;;;;9.35;3.28;;;;;;;11.00;75.09;93077.88;2054718;70;20212;-85
2022/10/10 00:40:26;;;;;;;10.88;3.30;;;;;;;10.94;75.51;93072.56;2049057;70;20216;-84
2022/10/10 00:42:52;;;;;;;12.18;2.95;;;;;;;11.04;74.60;93072.47;2051860;70;20146;-83
2022/10/10 00:45:27;;;;;;;11.25;3.08;;;;;;;11.01;74.91;93068.06;2053692;69;20553;-83
2022/10/10 00:48:04;;;;;;;10.88;3.42;;;;;;;10.68;77.35;93072.31;2052378;70;20146;-84
2022/10/10 00:50:37;;;;;;;6.63;2.60;;;;;;;10.89;76.10;93063.09;2051828;70;20158;-83
2022/10/10 00:53:17;;;;;;;12.48;3.30;;;;;;;10.94;75.05;93064.84;2051701;69;20256;-81
2022/10/10 00:55:44;;;;;;;12.52;3.03;;;;;;;10.94;74.20;93064.84;2051552;70;20291;-81
2022/10/10 00:58:21;;;;;;;9.60;3.63;;;;;;;10.60;77.32;93060.50;2053741;70;20138;-80
2022/10/10 01:00:47;;;;;;;8.90;2.80;;;;;;;10.89;75.20;93062.38;2051370;70;20197;-78
2022/10/10 01:03:14;;;;;;;8.13;3.15;;;;;;;10.82;75.59;93069.69;2050825;70;20150;-82
2022/10/10 01:05:45;;;;;;;8.07;2.97;;;;;;;10.85;76.31;93062.84;2048067;70;20174;-82
2022/10/10 01:08:17;;;;;;;8.27;3.33;;;;;;;10.87;75.47;93070.69;2051443;70;20154;-82
2022/10/10 01:11:01;;;;;;;8.13;3.00;;;;;;;10.86;74.58;93066.41;2051475;70;20866;-80
2022/10/10 01:13:34;;;;;;;4.93;2.78;;;;;;;10.86;75.32;93063.59;2051300;70;20150;-83
2022/10/10 01:16:09;;;;;;;7.40;3.00;;;;;;;10.86;75.22;93061.53;2050926;70;20241;-81
2022/10/10 01:18:41;;;;;;;7.82;3.17;;;;;;;10.96;74.65;93060.72;2051618;70;20141;-80
2022/10/10 01:21:20;;;;;;;5.90;3.00;;;;;;;11.03;74.47;93062.56;2050324;70;20169;-81
2022/10/10 01:24:11;;;;;;;11.57;3.10;;;;;;;11.03;74.06;93060.47;2051248;70;20715;-81
2022/10/10 01:26:56;;;;;;;8.63;3.13;;;;;;;11.08;73.87;93062.22;2051414;70;20170;-78
2022/10/10 01:29:32;;;;;;;6.53;3.30;;;;;;;11.03;73.19;93057.66;2050954;70;20154;-81
2022/10/10 01:32:13;;;;;;;6.05;3.00;;;;;;;11.01;74.50;93054.72;2050868;70;20583;-81
2022/10/10 01:34:51;;;;;;;9.63;3.03;;;;;;;11.03;74.04;93052.03;2051093;69;20230;-81
2022/10/10 01:37:19;;;;;;;11.20;3.30;;;;;;;11.03;73.86;93049.19;2051008;70;20879;-82
2022/10/10 01:39:58;;;;;;;10.10;3.47;;;;;;;11.04;73.63;93049.94;2051032;70;20570;-83
2022/10/10 01:42:30;;;;;;;9.40;3.33;;;;;;;11.05;73.72;93042.97;2047853;70;20143;-80
2022/10/10 01:44:57;;;;;;;8.70;2.83;;;;;;;11.07;72.66;93043.84;2050532;70;20134;-82
2022/10/10 01:47:23;;;;;;;9.40;2.80;;;;;;;11.03;73.29;93043.56;2050862;70;20158;-81
2022/10/10 01:49:54;;;;;;;10.93;3.08;;;;;;;11.01;73.61;93040.63;2050940;70;20169;-80
2022/10/10 01:52:56;;;;;;;5.85;3.05;;;;;;;11.10;74.45;93041.91;2051127;70;20235;-78
2022/10/10 01:55:27;;;;;;;10.57;3.97;;;;;;;10.88;76.35;93041.91;2051010;70;20173;-82
2022/10/10 01:58:02;;;;;;;10.90;3.13;;;;;;;10.55;77.94;93044.69;2051014;70;20169;-79
2022/10/10 02:00:35;;;;;;;8.68;3.42;;;;;;;10.92;75.68;93038.63;2051198;70;20146;-80
2022/10/10 02:03:20;;;;;;;;;;;;;;;10.85;75.99;93039.56;2051703;70;20162;-80
2022/10/10 02:05:58;;;;;;;9.13;3.53;;;;;;;10.97;75.08;93040.38;2051856;70;20834;-82
2022/10/10 02:08:44;;;;;;;9.07;2.80;;;;;;;11.03;74.12;93037.19;2051778;70;20249;-83
2022/10/10 02:11:11;;;;;;;11.48;3.28;;;;;;;10.99;74.21;93040.50;2051836;70;20170;-81
2022/10/10 02:13:46;;;;;;;8.20;3.30;;;;;;;11.01;73.85;93037.81;2051344;70;20502;-82
2022/10/10 02:16:19;;;;;;;11.40;3.55;;;;;;;11.03;73.97;93040.03;2051436;70;20225;-80
2022/10/10 02:18:48;;;;;;;8.23;3.28;;;;;;;10.99;73.61;93046.13;2051336;70;20249;-81
2022/10/10 02:21:16;;;;;;;14.13;3.42;;;;;;;11.03;74.23;93042.84;2051661;70;20213;-79
2022/10/10 02:23:49;;;;;;;11.60;3.20;;;;;;;11.01;73.71;93045.53;2051574;70;20147;-84
2022/10/10 02:26:18;;;;;;;9.88;3.28;;;;;;;11.03;73.62;93037.94;2048494;70;20158;-83
2022/10/10 02:28:52;;;;;;;9.13;2.72;;;;;;;11.00;72.80;93047.63;2051715;69;20157;-81
2022/10/10 02:31:28;;;;;;;9.98;3.33;;;;;;;10.98;73.67;93041.09;2051634;70;20221;-82
2022/10/10 02:34:00;;;;;;;6.18;2.83;;;;;;;10.99;73.50;93034.84;2051333;70;20217;-80
2022/10/10 02:36:28;;;;;;;7.05;2.97;;;;;;;11.04;72.53;93027.41;2051571;70;20165;-80
2022/10/10 02:38:55;;;;;;;12.02;3.42;;;;;;;10.96;74.56;93032.53;2051274;70;20237;-79
2022/10/10 02:41:22;;;;;;;9.48;3.25;;;;;;;11.00;73.82;93029.97;2051025;70;20189;-81
2022/10/10 02:43:49;;;;;;;11.75;3.30;;;;;;;11.00;74.03;93025.09;2051611;69;20142;-80
2022/10/10 02:46:15;;;;;;;7.97;3.50;;;;;;;11.03;73.35;93026.66;2051818;70;20212;-79
2022/10/10 02:48:41;;;;;;;10.18;3.10;;;;;;;11.03;73.76;93020.31;2051943;69;20249;-81
2022/10/10 02:51:08;;;;;;;10.57;3.13;;;;;;;10.92;74.96;93019.66;2054201;69;20146;-80
2022/10/10 02:53:36;;;;;;;9.23;3.47;;;;;;;10.99;74.06;93022.84;2054748;70;20566;-81
2022/10/10 02:56:02;;;;;;;6.72;2.95;;;;;;;11.02;73.46;93027.28;2054122;70;20158;-80
2022/10/10 02:58:28;;;;;;;7.95;3.20;;;;;;;10.97;74.28;93029.09;2054091;70;20147;-81
2022/10/10 03:00:53;;;;;;;6.82;3.00;;;;;;;11.02;73.37;93033.66;2053919;69;20135;-81
2022/10/10 03:03:19;;;;;;;13.55;3.05;;;;;;;11.01;71.87;93031.44;2051360;70;20150;-81
2022/10/10 03:05:45;;;;;;;8.18;2.97;;;;;;;10.96;74.71;93033.28;2051854;70;20213;-80
2022/10/10 03:08:10;;;;;;;9.45;3.25;;;;;;;10.95;75.07;93028.97;2051922;70;20612;-81
2022/10/10 03:10:36;;;;;;;8.27;3.38;;;;;;;10.96;73.65;93033.28;2051829;70;20145;-81
2022/10/10 03:13:02;;;;;;;10.00;3.22;;;;;;;10.93;74.81;93035.22;2045669;70;20154;-80
2022/10/10 03:15:27;;;;;;;10.45;3.40;;;;;;;10.94;74.21;93033.84;2051650;70;20577;-80
2022/10/10 03:17:53;;;;;;;5.82;3.17;;;;;;;10.96;74.18;93033.28;2051877;70;20182;-81
2022/10/10 03:20:18;;;;;;;9.90;2.95;;;;;;;10.97;74.35;93039.63;2051708;70;20166;-80
2022/10/10 03:22:44;;;;;;;12.38;3.38;;;;;;;10.97;74.55;93031.19;2051689;70;20173;-81
2022/10/10 03:25:09;;;;;;;5.70;3.13;;;;;;;10.98;74.19;93029.84;2051909;70;20613;-81
2022/10/10 03:27:35;;;;;;;7.95;3.28;;;;;;;10.99;74.00;93032.03;2051842;70;20150;-81
2022/10/10 03:30:01;;;;;;;9.68;3.13;;;;;;;11.02;73.17;93027.28;2051905;70;20170;-78
2022/10/10 03:32:28;;;;;;;12.48;3.50;;;;;;;10.90;74.12;93027.97;2051082;70;20146;-81
2022/10/10 03:34:54;;;;;;;9.73;3.17;;;;;;;10.92;73.62;93038.63;2051635;70;20177;-81
2022/10/10 03:37:19;;;;;;;14.50;3.40;;;;;;;10.93;74.30;93034.47;2052400;70;20150;-79
2022/10/10 03:39:45;;;;;;;6.43;2.88;;;;;;;10.92;74.47;93030.19;2051752;70;20207;-80
2022/10/10 03:42:11;;;;;;;13.70;3.20;;;;;;;10.92;74.09;93035.81;2051613;69;20235;-79
2022/10/10 03:44:36;;;;;;;10.25;3.33;;;;;;;10.98;73.61;93035.47;2054047;70;20209;-80
2022/10/10 03:47:02;;;;;;;9.18;3.03;;;;;;;10.99;73.69;93036.94;2051636;70;20153;-80
2022/10/10 03:49:28;;;;;;;12.75;3.38;;;;;;;11.01;73.47;93029.38;2051711;70;20158;-79
2022/10/10 03:51:53;;;;;;;9.57;2.88;;;;;;;10.97;74.27;93029.09;2051622;70;20150;-79
2022/10/10 03:54:19;;;;;;;12.25;3.30;;;;;;;11.08;72.38;93034.03;2053955;69;20601;-78
2022/10/10 03:56:45;;;;;;;8.10;3.22;;;;;;;10.98;74.30;93032.66;2051599;70;20135;-80
2022/10/10 03:59:10;;;;;;;12.38;3.33;;;;;;;11.10;72.70;93036.25;2051629;70;20176;-80
2022/10/10 04:01:36;;;;;;;9.98;3.28;;;;;;;11.14;72.87;93023.16;2051582;70;20162;-79
2022/10/10 04:04:02;;;;;;;10.43;3.65;;;;;;;11.10;72.49;93034.19;2051645;70;20165;-80
2022/10/10 04:06:28;;;;;;;6.47;3.00;;;;;;;11.08;72.96;93030.47;2051805;70;20150;-81
2022/10/10 04:08:53;;;;;;;12.25;3.50;;;;;;;11.00;75.56;93029.97;2051857;70;20139;-80
2022/10/10 04:11:21;;;;;;;9.30;3.20;;;;;;;11.17;72.47;93032.47;2051791;70;20198;-77
2022/10/10 04:13:46;;;;;;;7.13;3.35;;;;;;;11.18;73.14;93031.88;2051595;70;20146;-75
2022/10/10 04:16:12;;;;;;;8.63;3.10;;;;;;;11.22;72.54;93028.56;2051620;70;20282;-80
2022/10/10 04:18:37;;;;;;;4.82;2.97;;;;;;;11.18;72.89;93029.06;2051621;70;20531;-80
2022/10/10 04:21:04;;;;;;;8.20;3.10;;;;;;;11.16;73.15;93036.63;2051622;70;20150;-78
2022/10/10 04:23:30;;;;;;;11.43;3.95;;;;;;;11.20;74.51;93031.25;2051470;70;20238;-80
2022/10/10 04:25:56;;;;;;;7.97;3.53;;;;;;;11.12;75.29;93014.56;2051746;70;20563;-80
2022/10/10 04:28:23;;;;;;;10.18;3.72;;;;;;;11.19;72.73;93019.25;2051606;70;20164;-77
2022/10/10 04:30:49;;;;;;;14.57;3.53;;;;;;;11.18;74.03;93020.63;2051611;70;20240;-80
2022/10/10 04:33:14;;;;;;;11.30;3.40;;;;;;;11.21;73.18;93024.28;2051653;69;20146;-79
2022/10/10 04:35:40;;;;;;;11.85;3.80;;;;;;;11.16;74.02;93017.66;2051018;70;20574;-79
2022/10/10 04:38:06;;;;;;;9.05;3.72;;;;;;;11.26;72.70;93023.19;2051444;70;20577;-81
2022/10/10 04:40:32;;;;;;;9.45;3.25;;;;;;;11.32;72.83;93017.94;2051601;70;20153;-79
2022/10/10 04:42:57;;;;;;;5.72;3.05;;;;;;;11.30;72.76;93012.19;2051706;70;20131;-81
2022/10/10 04:45:26;;;;;;;10.07;2.88;;;;;;;11.29;72.66;93019.16;2051667;70;20543;-79
2022/10/10 04:47:55;;;;;;;9.15;3.67;;;;;;;11.30;72.45;93009.34;2051354;70;20241;-79
2022/10/10 04:50:22;;;;;;;4.65;3.05;;;;;;;11.33;71.56;93008.16;2051728;70;20154;-76
2022/10/10 04:52:48;;;;;;;12.20;3.88;;;;;;;11.35;71.99;93005.44;2052044;70;20181;-77
2022/10/10 04:55:13;;;;;;;9.57;3.13;;;;;;;11.30;71.82;93003.00;2052080;70;20197;-79
2022/10/10 04:57:39;;;;;;;11.48;3.53;;;;;;;11.32;72.98;93003.88;2051643;70;20328;-79
2022/10/10 05:00:05;;;;;;;10.60;3.55;;;;;;;11.32;72.19;93009.50;2051497;69;20156;-78
2022/10/10 05:02:31;;;;;;;11.43;3.10;;;;;;;11.31;70.57;92999.56;2051608;70;20312;-80
2022/10/10 05:04:56;;;;;;;9.73;3.45;;;;;;;11.33;72.56;93010.97;2051665;70;20558;-81
2022/10/10 05:07:22;;;;;;;13.65;3.45;;;;;;;11.27;71.28;93019.03;2051585;70;20153;-80
2022/10/10 05:09:48;;;;;;;7.32;3.20;;;;;;;11.25;71.44;93013.28;2051540;70;20150;-80
2022/10/10 05:12:14;;;;;;;11.90;3.72;;;;;;;11.27;72.59;93015.47;2051473;70;20153;-80
2022/10/10 05:14:40;;;;;;;9.20;3.08;;;;;;;11.27;73.20;93007.00;2051557;70;20158;-80
2022/10/10 05:17:05;;;;;;;11.00;3.40;;;;;;;11.31;72.82;93021.38;2051591;70;20142;-81
2022/10/10 05:19:31;;;;;;;9.48;3.13;;;;;;;11.30;72.62;93011.44;2051541;70;20173;-80
2022/10/10 05:21:57;;;;;;;6.97;3.83;;;;;;;11.31;71.08;93010.09;2051435;70;20632;-76
2022/10/10 05:24:23;;;;;;;10.70;3.47;;;;;;;11.26;73.24;93019.63;2051586;70;20138;-78
2022/10/10 05:26:48;;;;;;;10.77;3.80;;;;;;;11.28;73.59;93016.97;2051680;70;20261;-77
2022/10/10 05:29:14;;;;;;;11.57;4.35;;;;;;;11.34;73.77;93012.44;2051661;70;20146;-80
2022/10/10 05:31:40;;;;;;;17.27;7.60;;;;;;;11.20;73.46;93014.34;2051413;70;20150;-80
2022/10/10 05:34:05;;;;;;;15.57;8.02;;;;;;;11.25;73.18;93018.91;2051301;69;20614;-81
2022/10/10 05:36:31;;;;;;;14.48;8.05;;;;;;;11.30;73.25;93005.81;2051684;70;20135;-81
2022/10/10 05:38:56;;;;;;;17.92;7.75;;;;;;;11.33;72.36;93015.88;2053648;69;20149;-81
2022/10/10 05:41:22;;;;;;;9.68;5.70;;;;;;;11.31;71.33;93012.91;2051398;70;20486;-80
2022/10/10 05:43:48;;;;;;;8.00;4.75;;;;;;;11.26;74.31;93019.63;2051343;70;20189;-81
2022/10/10 05:46:13;;;;;;;6.38;3.70;;;;;;;11.26;72.39;93022.47;2051340;70;20162;-81
2022/10/10 05:48:39;;;;;;;7.38;3.83;;;;;;;11.31;72.75;93027.72;2051507;70;20597;-81
2022/10/10 05:51:06;;;;;;;9.68;4.15;;;;;;;11.30;73.12;93031.91;2051406;70;20142;-81
2022/10/10 05:53:32;;;;;;;7.60;3.58;;;;;;;11.25;73.56;93030.19;2051477;70;20533;-80
2022/10/10 05:56:00;;;;;;;13.13;3.83;;;;;;;11.30;72.94;93031.16;2051546;70;20596;-79
2022/10/10 05:58:26;;;;;;;12.82;5.72;;;;;;;11.41;72.59;93022.03;2051556;70;20155;-80
2022/10/10 06:00:52;;;;;;;12.90;4.18;;;;;;;11.43;72.55;93030.59;2051439;70;20189;-78
2022/10/10 06:03:18;;;;;;;9.57;3.60;;;;;;;11.51;72.08;93024.72;2051547;70;20542;-79
2022/10/10 06:05:47;;;;;;;8.35;3.67;;;;;;;11.56;73.32;93023.63;2050818;70;20155;-78
2022/10/10 06:08:13;;;;;;;9.40;3.67;;;;;;;11.48;72.87;93025.94;2051610;70;20237;-79
2022/10/10 06:10:42;;;;;;;8.13;3.40;;;;;;;11.55;71.21;93028.53;2052529;70;20194;-76
2022/10/10 06:13:09;;;;;;;11.80;3.45;;;;;;;11.63;71.39;93031.13;2051265;70;20158;-78
2022/10/10 06:15:35;;;;;;;8.30;3.30;;;;;;;11.55;72.16;93022.91;2051148;70;20210;-77
2022/10/10 06:18:00;;;;;;;11.00;4.32;;;;;;;11.51;73.48;93024.72;2051267;70;20534;-78
2022/10/10 06:20:26;;;;;;;11.98;3.70;;;;;;;11.65;72.68;93029.16;2051460;70;20213;-79
2022/10/10 06:22:52;;;;;;;8.95;3.45;;;;;;;11.70;70.15;93030.16;2051475;70;20205;-78
2022/10/10 06:25:17;;;;;;;9.90;3.40;;;;;;;11.78;70.08;93027.09;2051276;70;20142;-81
2022/10/10 06:27:46;;;;;;;7.40;3.20;;;;;;;11.78;72.58;93033.47;2051351;70;20159;-79
2022/10/10 06:30:12;;;;;;;10.38;3.40;;;;;;;11.74;70.20;93027.59;2051367;70;20138;-82
2022/10/10 06:32:37;;;;;;;12.98;5.20;;;;;;;11.85;71.33;93040.25;2051585;70;20292;-81
2022/10/10 06:35:03;;;;;;;17.20;9.38;;;;;;;11.49;72.55;93039.41;2051329;70;20170;-80
2022/10/10 06:37:32;;;;;;;16.40;8.57;;;;;;;11.67;72.26;93037.00;2051512;70;20170;-79
2022/10/10 06:39:57;;;;;;;19.15;9.55;;;;;;;11.70;74.67;93047.81;2051159;70;20153;-77
2022/10/10 06:42:23;;;;;;;18.05;7.80;;;;;;;11.81;72.20;93040.69;2051321;70;20162;-79
2022/10/10 06:44:55;;;;;;;17.13;7.55;;;;;;;11.98;71.36;93053.03;2050741;70;20546;-77
2022/10/10 06:47:21;;;;;;;16.88;7.85;;;;;;;12.03;70.88;93049.81;2051920;70;20221;-79
2022/10/10 06:49:47;;;;;;;14.77;7.70;;;;;;;12.09;70.50;93053.00;2051440;70;20213;-79
2022/10/10 06:52:12;;;;;;;21.48;8.55;;;;;;;11.82;74.62;93044.25;2048200;70;20141;-79
2022/10/10 06:54:38;;;;;;;15.75;7.50;;;;;;;12.04;71.74;93047.75;2047916;70;20239;-79
2022/10/10 06:57:03;;;;;;;14.98;8.80;;;;;;;12.15;71.22;93050.56;2044690;70;20154;-81
2022/10/10 06:59:29;;;;;;;18.27;8.98;;;;;;;12.13;72.46;93055.34;2047931;70;20181;-76
2022/10/10 07:01:54;;;;;;;13.00;7.20;;;;;;;12.07;71.58;93057.81;2047943;70;20521;-80
2022/10/10 07:04:20;;;;;;;11.70;7.03;;;;;;;12.18;72.10;93057.06;2048007;70;20582;-80
2022/10/10 07:06:46;;;;;;;16.05;8.50;;;;;;;12.26;71.20;93062.47;2048102;70;20151;-81
2022/10/10 07:09:11;;;;;;;17.92;11.05;;;;;;;12.26;72.88;93063.22;2047455;70;20139;-76
2022/10/10 07:11:40;;;;;;;19.55;10.02;;;;;;;12.30;69.90;93069.09;2048138;70;20424;-76
2022/10/10 07:14:05;;;;;;;14.60;9.95;;;;;;;12.38;69.83;93068.84;2047996;70;20190;-75
2022/10/10 07:16:32;;;;;;;19.50;11.20;;;;;;;12.43;70.22;93064.94;2047933;70;20186;-78
2022/10/10 07:18:58;;;;;;;17.65;10.05;;;;;;;12.49;70.49;93068.09;2047407;70;20131;-77
2022/10/10 07:21:23;;;;;;;30.70;11.52;;;;;;;12.54;68.83;93069.81;2047941;70;20162;-76
2022/10/10 07:23:49;;;;;;;34.90;11.30;;;;;;;12.52;69.46;93071.78;2048122;70;20193;-76
2022/10/10 07:26:19;;;;;;;18.25;8.10;;;;;;;12.61;68.74;93068.09;2048002;70;20527;-79
2022/10/10 07:28:45;;;;;;;23.52;9.73;;;;;;;12.66;68.43;93069.81;2048034;70;20150;-77
2022/10/10 07:31:11;;;;;;;22.85;9.20;;;;;;;12.69;71.37;93066.50;2048117;70;20242;-74
2022/10/10 07:33:42;;;;;;;18.15;7.72;;;;;;;12.65;69.73;93063.44;2048246;70;20146;-75
2022/10/10 07:36:08;;;;;;;17.70;7.72;;;;;;;12.81;69.92;93065.72;2048060;70;20250;-77
2022/10/10 07:38:35;;;;;;;21.38;8.10;;;;;;;12.91;69.80;93072.69;2048057;70;20226;-80
2022/10/10 07:41:04;;;;;;;16.60;6.28;;;;;;;12.94;70.07;93068.63;2048016;70;20135;-78
2022/10/10 07:43:29;;;;;;;15.15;4.97;;;;;;;12.93;71.88;93072.81;2048007;70;20170;-80
2022/10/10 07:45:55;;;;;;;17.55;5.82;;;;;;;13.06;70.61;93071.44;2047903;70;20153;-79
2022/10/10 07:48:20;;;;;;;21.48;7.40;;;;;;;13.03;69.84;93071.94;2047928;70;20150;-79
2022/10/10 07:50:46;;;;;;;16.40;6.88;;;;;;;13.14;69.55;93082.44;2048876;70;20142;-80
2022/10/10 07:53:12;;;;;;;16.15;7.00;;;;;;;13.19;69.38;93084.91;2050282;70;20146;-79
2022/10/10 07:55:39;;;;;;;14.05;7.07;;;;;;;13.06;69.36;93079.19;2047939;70;20533;-79
2022/10/10 07:58:05;;;;;;;12.90;6.40;;;;;;;13.15;71.12;93075.47;2047876;70;20155;-80
2022/10/10 08:00:32;;;;;;;13.80;6.00;;;;;;;13.25;70.00;93086.66;2047797;70;20209;-78
2022/10/10 08:02:58;;;;;;;16.90;6.00;;;;;;;13.29;69.73;93084.78;2047989;70;20174;-79
2022/10/10 08:05:23;;;;;;;10.02;4.82;;;;;;;13.23;69.59;93090.06;2047890;70;20518;-80
2022/10/10 08:07:49;;;;;;;9.77;4.65;;;;;;;13.44;69.06;93089.88;2047839;70;20173;-81
2022/10/10 08:10:15;;;;;;;12.50;4.72;;;;;;;13.46;69.62;93097.72;2048021;70;20142;-76
2022/10/10 08:12:40;;;;;;;12.13;4.82;;;;;;;13.49;68.00;93096.50;2047794;70;20332;-82
2022/10/10 08:15:06;;;;;;;14.65;5.60;;;;;;;13.39;69.54;93098.75;2047629;70;20158;-80
2022/10/10 08:17:32;;;;;;;12.68;5.18;;;;;;;13.42;68.17;93095.44;2048022;70;20154;-79
2022/10/10 08:19:58;;;;;;;15.20;5.80;;;;;;;13.55;68.39;93094.00;2047879;70;20146;-78
2022/10/10 08:22:23;;;;;;;9.00;4.53;;;;;;;13.71;67.23;93092.09;2047977;70;20139;-78
2022/10/10 08:24:49;;;;;;;9.60;4.75;;;;;;;13.85;66.72;93085.75;2047934;70;20159;-82
2022/10/10 08:27:16;;;;;;;15.25;5.93;;;;;;;13.99;67.43;93089.34;2047899;70;20139;-82
2022/10/10 08:29:42;;;;;;;18.23;7.75;;;;;;;14.05;68.38;93089.66;2047890;70;20528;-81
2022/10/10 08:32:08;;;;;;;14.43;6.90;;;;;;;13.92;68.93;93085.44;2047871;70;20165;-81
2022/10/10 08:34:34;;;;;;;17.38;7.00;;;;;;;14.09;68.30;93094.81;2047970;70;20151;-83
2022/10/10 08:37:01;;;;;;;14.35;6.93;;;;;;;14.17;68.21;93084.66;2047899;70;20233;-82
2022/10/10 08:39:26;;;;;;;15.35;6.43;;;;;;;14.18;68.31;93083.28;2047992;70;20238;-82
2022/10/10 08:41:56;;;;;;;17.88;6.80;;;;;;;14.26;68.20;93076.59;2047848;70;20146;-79
2022/10/10 08:44:31;;;;;;;12.52;6.60;;;;;;;14.34;67.94;93082.69;2047923;70;20230;-79
2022/10/10 08:47:04;;;;;;;10.52;6.10;;;;;;;14.39;67.95;93075.88;2047734;70;20238;-78
2022/10/10 08:49:43;;;;;;;11.98;6.65;;;;;;;14.46;67.63;93078.41;2047678;70;20167;-81
2022/10/10 08:52:14;;;;;;;15.52;7.72;;;;;;;14.61;68.82;93079.16;2047964;70;20151;-77
2022/10/10 08:54:41;;;;;;;20.52;7.57;;;;;;;14.64;68.04;93078.66;2047770;70;20257;-80
2022/10/10 08:57:21;;;;;;;18.23;7.30;;;;;;;14.80;68.44;93078.75;2047667;70;20139;-80
2022/10/10 08:59:47;;;;;;;23.48;9.13;;;;;;;14.76;67.97;93074.97;2047702;70;20142;-80
2022/10/10 09:02:27;;;;;;;16.65;8.27;;;;;;;14.98;65.92;93076.84;2047813;70;20165;-82
2022/10/10 09:04:52;;;;;;;14.73;8.23;;;;;;;15.13;66.35;93077.56;2048013;70;20222;-81
2022/10/10 09:07:30;;;;;;;10.30;4.90;;;;;;;15.08;66.46;93081.56;2048011;70;20230;-80
2022/10/10 09:10:30;;;;;;;9.15;4.90;;;;;;;15.26;65.33;93079.63;2047319;70;20139;-80
2022/10/10 09:13:36;;;;;;;14.98;6.38;;;;;;;15.55;65.32;93083.84;2042223;70;20517;-80
2022/10/10 09:16:35;;;;;;;12.55;6.53;;;;;;;15.61;65.08;93081.31;2046554;70;20161;-79
2022/10/10 09:19:10;;;;;;;15.73;7.78;;;;;;;15.81;65.09;93088.00;2047783;70;20159;-79
2022/10/10 09:21:38;;;;;;;17.65;7.75;;;;;;;15.91;64.59;93079.22;2047852;70;20226;-81
2022/10/10 09:24:18;;;;;;;9.73;5.93;;;;;;;15.85;64.51;93078.91;2047792;70;20200;-80
2022/10/10 09:26:50;;;;;;;14.20;5.72;;;;;;;16.21;63.60;93071.38;2047828;70;20154;-79
2022/10/10 09:29:29;;;;;;;14.32;5.55;;;;;;;16.38;63.11;93082.09;2047961;70;20155;-80
2022/10/10 09:32:24;;;;;;;11.63;5.20;;;;;;;16.67;62.19;93077.69;2047571;70;20242;-78
2022/10/10 09:35:06;;;;;;;12.85;4.85;;;;;;;17.10;62.25;93068.19;2047663;70;20194;-76
2022/10/10 09:37:36;;;;;;;11.45;4.32;;;;;;;17.33;60.66;93073.44;2047669;70;20327;-76
2022/10/10 09:40:07;;;;;;;9.75;4.53;;;;;;;17.46;60.16;93072.56;2047592;70;20150;-76
2022/10/10 09:42:38;;;;;;;12.43;4.20;;;;;;;17.71;58.08;93068.59;2047553;70;20626;-76
2022/10/10 09:45:35;;;;;;;15.60;4.80;;;;;;;17.61;57.58;93068.19;2047651;70;20178;-76
2022/10/10 09:48:01;;;;;;;9.80;3.72;;;;;;;18.11;58.41;93068.03;2033214;70;20183;-77
2022/10/10 09:50:27;;;;;;;10.68;3.10;;;;;;;18.44;53.99;93064.28;2033593;70;20187;-77
2022/10/10 09:52:52;;;;;;;12.40;3.40;;;;;;;18.48;56.28;93064.44;2033591;70;20159;-77
2022/10/10 09:55:33;;;;;;;8.15;2.95;;;;;;;18.91;53.61;93060.31;2033439;70;20200;-76
2022/10/10 09:58:10;;;;;;;10.38;3.38;;;;;;;18.86;51.93;93065.16;2033478;70;20279;-74
2022/10/10 10:00:36;;;;;;;7.25;3.80;;;;;;;18.99;51.67;93060.63;2030730;70;20155;-77
2022/10/10 10:03:03;;;;;;;10.35;3.75;;;;;;;19.12;51.90;93061.78;2033416;70;20156;-77
2022/10/10 10:05:29;;;;;;;9.35;3.85;;;;;;;19.54;52.28;93057.50;2033459;70;20185;-76
2022/10/10 10:07:55;;;;;;;12.27;3.85;;;;;;;19.72;52.15;93053.81;2033349;70;20152;-76
2022/10/10 10:10:26;;;;;;;7.43;3.80;;;;;;;19.87;51.24;93061.44;2033299;70;20236;-76
2022/10/10 10:12:53;;;;;;;12.98;4.07;;;;;;;19.89;50.21;93058.66;2033238;70;20171;-75
2022/10/10 10:15:22;;;;;;;10.60;3.95;;;;;;;20.30;50.93;93054.22;2033106;70;20236;-76
2022/10/10 10:18:16;;;;;;;12.93;3.80;;;;;;;20.00;49.67;93051.13;2030573;70;20278;-76
2022/10/10 10:20:44;;;;;;;12.18;3.80;;;;;;;20.39;50.52;93055.16;2033563;70;20209;-76
2022/10/10 10:23:30;;;;;;;8.02;3.88;;;;;;;20.29;49.12;93047.00;2031007;70;20178;-76
2022/10/10 10:25:59;;;;;;;9.05;3.80;;;;;;;20.34;49.56;93051.44;2048324;70;20150;-76
2022/10/10 10:28:25;;;;;;;12.88;4.10;;;;;;;20.94;48.55;93048.94;2048011;70;20181;-78
2022/10/10 10:30:53;;;;;;;9.00;3.72;;;;;;;20.97;48.06;93050.44;2047939;70;20134;-76
2022/10/10 10:33:48;;;;;;;10.30;3.72;;;;;;;20.83;47.81;93047.19;2047521;70;20158;-76
2022/10/10 10:36:45;;;;;;;9.38;3.05;;;;;;;20.83;46.77;93041.47;2048182;70;20158;-77
2022/10/10 10:39:19;;;;;;;9.55;3.70;;;;;;;21.58;47.04;93048.50;2048075;70;20151;-78
2022/10/10 10:41:53;;;;;;;9.70;3.40;;;;;;;21.89;45.86;93046.38;2047923;70;20147;-76
2022/10/10 10:44:43;;;;;;;9.23;3.30;;;;;;;21.82;45.44;93043.38;2047908;70;20146;-78
2022/10/10 10:47:28;;;;;;;9.73;3.78;;;;;;;22.10;45.07;93041.88;2047874;70;20250;-77
2022/10/10 10:50:07;;;;;;;11.02;3.20;;;;;;;22.19;44.17;93034.94;2048025;70;20594;-76
2022/10/10 10:53:01;;;;;;;16.80;4.07;;;;;;;23.13;42.28;93034.06;2047367;70;20163;-78
2022/10/10 10:55:59;;;;;;;13.73;3.92;;;;;;;23.62;42.16;93026.34;2048018;70;20147;-77
2022/10/10 10:58:53;;;;;;;13.50;3.97;;;;;;;24.37;39.19;93023.97;2038453;70;20290;-77
2022/10/10 11:01:35;;;;;;;12.18;3.65;;;;;;;26.33;37.98;93023.97;2047826;70;20672;-77
2022/10/10 11:04:11;;;;;;;10.63;3.50;;;;;;;27.51;36.23;93018.81;2048126;70;20166;-79
2022/10/10 11:06:46;;;;;;;16.52;4.20;;;;;;;28.33;32.17;93030.47;2048033;70;20605;-79
2022/10/10 11:09:30;;;;;;;12.80;4.18;;;;;;;28.95;34.14;93022.41;2048019;70;20150;-78
2022/10/10 11:12:08;;;;;;;13.80;3.40;;;;;;;30.45;31.38;93020.16;2047969;70;20178;-79
2022/10/10 11:14:52;;;;;;;11.93;3.53;;;;;;;30.63;30.34;93019.97;2048623;70;20159;-79
2022/10/10 11:17:23;;;;;;;10.63;3.08;;;;;;;29.15;31.75;93010.78;2048182;70;20147;-79
2022/10/10 11:20:05;;;;;;;10.15;3.15;;;;;;;30.79;30.51;93013.31;2048068;70;20184;-79
2022/10/10 11:22:37;;;;;;;8.50;2.63;;;;;;;29.85;27.91;93011.16;2047970;70;20282;-79
2022/10/10 11:25:23;;;;;;;6.75;3.05;;;;;;;29.53;30.95;93006.97;2048072;70;20190;-79
2022/10/10 11:27:56;;;;;;;11.05;3.10;;;;;;;29.47;30.79;93001.22;2048027;70;20212;-77
2022/10/10 11:30:31;;;;;;;11.35;3.25;;;;;;;30.99;29.56;92997.84;2048204;70;20680;-78
2022/10/10 11:33:15;;;;;;;12.13;3.05;;;;;;;32.79;26.94;92996.69;2048544;70;20162;-76
2022/10/10 11:36:05;;;;;;;15.68;3.25;;;;;;;34.10;26.67;93003.53;2050346;70;20226;-76
2022/10/10 11:38:59;;;;;;;11.63;3.50;;;;;;;33.81;24.76;93005.63;2050946;70;20525;-80
2022/10/10 11:41:40;;;;;;;11.85;3.88;;;;;;;33.04;25.76;93002.09;2051266;70;20193;-79
2022/10/10 11:44:24;;;;;;;17.92;4.18;;;;;;;34.39;24.68;93003.56;2051236;70;20146;-79